createdAt,value
2023-04-15T00:00:58.543Z,3.43
2023-04-15T00:03:26.982Z,3.37
2023-04-15T00:05:56.751Z,3.07
2023-04-15T00:08:24.876Z,2.80
2023-04-15T00:10:55.735Z,3.50
2023-04-15T00:13:23.792Z,3.17
2023-04-15T00:15:55.173Z,3.30
2023-04-15T00:18:23.382Z,2.93
2023-04-15T00:20:51.545Z,3.40
2023-04-15T00:23:20.964Z,2.73
2023-04-15T00:25:49.085Z,3.57
2023-04-15T00:28:19.507Z,3.00
2023-04-15T00:30:47.649Z,3.27
2023-04-15T00:33:16.515Z,3.00
2023-04-15T00:35:44.660Z,3.50
2023-04-15T00:38:13.297Z,2.90
2023-04-15T00:40:42.903Z,2.87
2023-04-15T00:43:10.976Z,3.20
2023-04-15T00:45:39.950Z,3.23
2023-04-15T00:48:09.535Z,3.10
2023-04-15T00:50:37.659Z,3.20
2023-04-15T00:53:05.714Z,2.90
2023-04-15T00:55:37.401Z,3.20
2023-04-15T00:58:07.210Z,3.13
2023-04-15T01:00:36.008Z,2.80
2023-04-15T01:03:04.348Z,3.57
2023-04-15T01:05:32.532Z,3.40
2023-04-15T01:08:00.701Z,3.70
2023-04-15T01:10:28.885Z,2.87
2023-04-15T01:12:57.018Z,2.63
2023-04-15T01:15:26.468Z,3.07
2023-04-15T01:17:54.571Z,2.80
2023-04-15T01:20:23.516Z,3.40
2023-04-15T01:22:51.585Z,3.07
2023-04-15T01:25:20.395Z,3.00
2023-04-15T01:27:49.857Z,3.03
2023-04-15T01:30:17.998Z,2.93
2023-04-15T01:32:46.123Z,2.70
2023-04-15T01:35:14.278Z,2.83
2023-04-15T01:37:42.383Z,3.23
2023-04-15T01:40:11.104Z,2.70
2023-04-15T01:42:39.535Z,2.73
2023-04-15T01:45:10.532Z,3.10
2023-04-15T01:47:38.646Z,2.97
2023-04-15T01:50:08.573Z,3.10
2023-04-15T01:52:43.653Z,2.70
2023-04-15T01:55:14.072Z,3.10
2023-04-15T01:57:42.277Z,3.40
2023-04-15T02:00:12.805Z,3.20
2023-04-15T02:02:41.053Z,3.30
2023-04-15T02:05:10.005Z,3.20
2023-04-15T02:07:38.314Z,3.40
2023-04-15T02:10:14.468Z,3.00
2023-04-15T02:12:42.556Z,3.03
2023-04-15T02:15:12.556Z,3.47
2023-04-15T02:17:40.806Z,3.33
2023-04-15T02:20:10.675Z,2.70
2023-04-15T02:22:38.813Z,3.33
2023-04-15T02:25:08.320Z,3.27
2023-04-15T02:27:37.327Z,3.20
2023-04-15T02:30:05.990Z,3.80
2023-04-15T02:32:35.615Z,3.27
2023-04-15T02:35:07.689Z,2.60
2023-04-15T02:37:40.735Z,3.20
2023-04-15T02:40:11.935Z,3.20
2023-04-15T02:42:40.201Z,3.13
2023-04-15T02:45:09.090Z,3.03
2023-04-15T02:47:41.374Z,3.03
2023-04-15T02:50:12.953Z,2.60
2023-04-15T02:52:41.658Z,3.13
2023-04-15T02:55:10.338Z,3.00
2023-04-15T02:57:39.247Z,2.63
2023-04-15T03:00:09.765Z,3.07
2023-04-15T03:02:39.909Z,2.70
2023-04-15T03:05:12.612Z,3.10
2023-04-15T03:07:40.995Z,2.60
2023-04-15T03:10:13.349Z,2.60
2023-04-15T03:12:41.850Z,2.90
2023-04-15T03:15:11.645Z,2.77
2023-04-15T03:17:41.167Z,2.50
2023-04-15T03:20:10.389Z,2.67
2023-04-15T03:22:38.501Z,2.83
2023-04-15T03:25:07.713Z,2.77
2023-04-15T03:27:35.846Z,2.70
2023-04-15T03:30:03.981Z,3.00
2023-04-15T03:32:35.297Z,3.13
2023-04-15T03:35:05.014Z,2.80
2023-04-15T03:37:33.223Z,2.87
2023-04-15T03:40:01.503Z,2.90
2023-04-15T03:42:29.572Z,2.83
2023-04-15T03:44:57.659Z,2.80
2023-04-15T03:47:25.831Z,2.43
2023-04-15T03:49:53.967Z,2.70
2023-04-15T03:52:23.562Z,3.07
2023-04-15T03:54:51.628Z,2.77
2023-04-15T03:57:19.707Z,2.90
2023-04-15T03:59:47.781Z,2.50
2023-04-15T04:02:15.932Z,2.70
2023-04-15T04:04:47.327Z,2.50
2023-04-15T04:07:17.187Z,2.80
2023-04-15T04:09:47.496Z,2.30
2023-04-15T04:12:15.691Z,2.40
2023-04-15T04:14:43.752Z,2.10
2023-04-15T04:17:11.949Z,2.60
2023-04-15T04:19:43.380Z,3.00
2023-04-15T04:22:11.523Z,2.10
2023-04-15T04:24:39.612Z,2.80
2023-04-15T04:27:09.139Z,2.00
2023-04-15T04:29:37.444Z,2.50
2023-04-15T04:32:05.681Z,2.30
2023-04-15T04:34:33.820Z,2.50
2023-04-15T04:37:01.928Z,2.33
2023-04-15T04:39:30.070Z,2.50
2023-04-15T04:41:58.249Z,2.70
2023-04-15T04:44:27.694Z,2.90
2023-04-15T04:46:55.863Z,2.73
2023-04-15T04:49:23.999Z,2.47
2023-04-15T04:51:52.232Z,2.70
2023-04-15T04:54:23.725Z,2.70
2023-04-15T04:56:51.792Z,2.80
2023-04-15T04:59:19.899Z,2.27
2023-04-15T05:01:49.382Z,2.60
2023-04-15T05:04:17.562Z,2.70
2023-04-15T05:06:45.794Z,2.47
2023-04-15T05:09:13.907Z,2.50
2023-04-15T05:11:42.065Z,2.80
2023-04-15T05:14:10.137Z,2.20
2023-04-15T05:16:38.238Z,2.63
2023-04-15T05:19:07.823Z,2.60
2023-04-15T05:21:37.617Z,2.70
2023-04-15T05:24:07.696Z,2.70
2023-04-15T05:26:42.843Z,2.47
2023-04-15T05:29:11.250Z,2.47
2023-04-15T05:31:39.470Z,2.80
2023-04-15T05:34:09.069Z,2.83
2023-04-15T05:36:37.152Z,2.60
2023-04-15T05:39:05.425Z,2.90
2023-04-15T05:41:33.582Z,2.83
2023-04-15T05:44:02.028Z,2.77
2023-04-15T05:46:30.136Z,2.60
2023-04-15T05:48:58.407Z,2.70
2023-04-15T05:51:28.003Z,3.10
2023-04-15T05:53:56.065Z,2.60
2023-04-15T05:56:24.896Z,2.60
2023-04-15T05:58:53.813Z,2.73
2023-04-15T06:01:24.509Z,2.57
2023-04-15T06:03:52.870Z,3.00
2023-04-15T06:06:21.566Z,2.93
2023-04-15T06:08:51.053Z,2.90
2023-04-15T06:11:19.108Z,2.30
2023-04-15T06:13:47.184Z,2.40
2023-04-15T06:16:15.314Z,2.90
2023-04-15T06:18:43.880Z,3.17
2023-04-15T06:21:12.002Z,2.80
2023-04-15T06:23:41.249Z,2.90
2023-04-15T06:26:10.729Z,2.83
2023-04-15T06:28:38.831Z,2.90
2023-04-15T06:31:07.236Z,3.47
2023-04-15T06:33:35.478Z,3.47
2023-04-15T06:36:03.574Z,2.80
2023-04-15T06:38:31.715Z,3.10
2023-04-15T06:40:59.803Z,3.50
2023-04-15T06:43:29.677Z,2.90
2023-04-15T06:45:58.246Z,3.60
2023-04-15T06:48:26.521Z,3.30
2023-04-15T06:50:54.627Z,2.43
2023-04-15T06:53:23.094Z,3.40
2023-04-15T06:55:51.156Z,3.30
2023-04-15T06:58:19.285Z,3.43
2023-04-15T07:00:49.176Z,3.20
2023-04-15T07:03:17.748Z,3.50
2023-04-15T07:05:45.810Z,3.20
2023-04-15T07:08:14.089Z,2.97
2023-04-15T07:10:42.242Z,3.47
2023-04-15T07:13:10.403Z,3.10
2023-04-15T07:15:38.502Z,2.77
2023-04-15T07:18:07.956Z,2.90
2023-04-15T07:20:36.017Z,3.07
2023-04-15T07:23:20.113Z,2.90
2023-04-15T07:25:48.544Z,2.80
2023-04-15T07:28:16.814Z,3.20
2023-04-15T07:30:44.914Z,3.23
2023-04-15T07:33:14.816Z,3.10
2023-04-15T07:35:43.571Z,2.90
2023-04-15T07:38:12.792Z,2.90
2023-04-15T07:40:40.896Z,2.60
2023-04-15T07:43:08.947Z,2.87
2023-04-15T07:45:37.033Z,2.50
2023-04-15T07:48:05.918Z,3.03
2023-04-15T07:50:35.381Z,3.07
2023-04-15T07:53:03.441Z,2.97
2023-04-15T07:55:31.652Z,3.13
2023-04-15T07:57:59.750Z,2.80
2023-04-15T08:00:28.252Z,2.30
2023-04-15T08:02:59.417Z,2.80
2023-04-15T08:05:27.586Z,2.87
2023-04-15T08:07:57.318Z,2.77
2023-04-15T08:10:25.407Z,3.03
2023-04-15T08:12:54.387Z,2.90
2023-04-15T08:15:25.587Z,3.03
2023-04-15T08:17:53.733Z,3.00
2023-04-15T08:20:22.021Z,3.10
2023-04-15T08:22:52.138Z,2.80
2023-04-15T08:25:21.774Z,2.50
2023-04-15T08:27:49.870Z,2.90
2023-04-15T08:30:18.192Z,2.80
2023-04-15T08:32:47.518Z,2.87
2023-04-15T08:35:15.838Z,2.50
2023-04-15T08:37:44.065Z,2.70
2023-04-15T08:40:13.709Z,2.63
2023-04-15T08:42:46.235Z,2.70
2023-04-15T08:45:14.603Z,2.60
2023-04-15T08:47:42.682Z,2.53
2023-04-15T08:50:11.857Z,2.87
2023-04-15T08:52:40.112Z,2.63
2023-04-15T08:55:08.764Z,3.00
2023-04-15T08:57:36.859Z,2.73
2023-04-15T09:00:07.590Z,2.87
2023-04-15T09:02:43.516Z,3.03
2023-04-15T09:05:11.831Z,3.13
2023-04-15T09:07:39.916Z,2.77
2023-04-15T09:10:09.191Z,2.43
2023-04-15T09:12:37.274Z,2.50
2023-04-15T09:15:07.945Z,2.27
2023-04-15T09:17:36.123Z,2.60
2023-04-15T09:20:13.020Z,2.30
2023-04-15T09:22:41.147Z,2.60
2023-04-15T09:25:27.662Z,2.40
2023-04-15T09:27:56.460Z,2.30
2023-04-15T09:30:25.970Z,2.40
2023-04-15T09:32:54.777Z,1.90
2023-04-15T09:35:26.281Z,2.20
2023-04-15T09:37:54.522Z,2.40
2023-04-15T09:40:35.927Z,2.40
2023-04-15T09:43:04.188Z,2.30
2023-04-15T09:45:33.921Z,2.03
2023-04-15T09:48:18.095Z,2.27
2023-04-15T09:50:46.239Z,1.93
2023-04-15T09:53:17.773Z,2.27
2023-04-15T09:55:47.097Z,2.40
2023-04-15T09:58:22.129Z,2.00
2023-04-15T10:00:52.458Z,2.20
2023-04-15T10:03:23.641Z,2.20
2023-04-15T10:05:53.396Z,2.17
2023-04-15T10:08:22.391Z,2.40
2023-04-15T10:10:51.891Z,2.23
2023-04-15T10:13:26.284Z,2.47
2023-04-15T10:15:58.697Z,2.47
2023-04-15T10:18:27.704Z,2.27
2023-04-15T10:20:56.022Z,2.30
2023-04-15T10:23:25.745Z,2.30
2023-04-15T10:25:54.464Z,2.03
2023-04-15T10:28:22.850Z,2.20
2023-04-15T10:30:51.066Z,1.90
2023-04-15T10:33:22.664Z,1.80
2023-04-15T10:35:51.735Z,2.30
2023-04-15T10:38:39.393Z,2.10
2023-04-15T10:41:16.640Z,2.10
2023-04-15T10:43:53.098Z,1.80
2023-04-15T10:46:25.697Z,2.10
2023-04-15T10:48:55.353Z,1.97
2023-04-15T10:51:30.915Z,1.67
2023-04-15T10:53:59.946Z,2.10
2023-04-15T10:56:30.511Z,1.60
2023-04-15T10:59:01.414Z,1.90
2023-04-15T11:01:54.268Z,1.60
2023-04-15T11:04:58.375Z,1.90
2023-04-15T11:07:39.581Z,1.70
2023-04-15T11:10:53.634Z,1.97
2023-04-15T11:13:45.104Z,1.57
2023-04-15T11:16:13.634Z,1.40
2023-04-15T11:18:43.824Z,1.83
2023-04-15T11:21:13.286Z,1.53
2023-04-15T11:23:44.236Z,1.70
2023-04-15T11:26:12.868Z,1.73
2023-04-15T11:28:41.867Z,1.93
2023-04-15T11:31:11.973Z,1.43
2023-04-15T11:33:46.045Z,1.33
2023-04-15T11:36:15.579Z,1.77
2023-04-15T11:38:47.624Z,1.40
2023-04-15T11:41:15.745Z,1.47
2023-04-15T11:43:44.020Z,1.80
2023-04-15T11:46:12.244Z,1.87
2023-04-15T11:48:43.687Z,1.57
2023-04-15T11:51:12.239Z,1.70
2023-04-15T11:53:43.019Z,1.87
2023-04-15T11:56:11.735Z,1.90
2023-04-15T11:58:40.166Z,1.83
2023-04-15T12:01:08.437Z,1.90
2023-04-15T12:03:43.840Z,2.00
2023-04-15T12:06:14.171Z,1.83
2023-04-15T12:09:13.787Z,1.53
2023-04-15T12:11:47.161Z,2.03
2023-04-15T12:14:22.400Z,1.90
2023-04-15T12:16:51.772Z,1.77
2023-04-15T12:19:24.381Z,1.70
2023-04-15T12:21:53.020Z,2.17
2023-04-15T12:24:23.801Z,1.80
2023-04-15T12:26:52.698Z,1.60
2023-04-15T12:29:21.267Z,1.87
2023-04-15T12:31:53.498Z,1.80
2023-04-15T12:34:28.523Z,2.10
2023-04-15T12:36:57.738Z,1.60
2023-04-15T12:39:30.446Z,1.57
2023-04-15T12:41:59.370Z,1.70
2023-04-15T12:44:28.046Z,1.80
2023-04-15T12:46:56.222Z,2.13
2023-04-15T12:49:24.646Z,1.70
2023-04-15T12:51:53.395Z,1.80
2023-04-15T12:54:21.629Z,1.80
2023-04-15T12:56:51.400Z,1.90
2023-04-15T12:59:19.613Z,2.10
2023-04-15T13:01:47.901Z,1.80
2023-04-15T13:04:16.519Z,1.87
2023-04-15T13:06:44.733Z,1.87
2023-04-15T13:09:12.904Z,1.57
2023-04-15T13:11:40.964Z,1.90
2023-04-15T13:14:11.545Z,1.87
2023-04-15T13:16:39.831Z,1.80
2023-04-15T13:19:08.061Z,2.00
2023-04-15T13:21:36.487Z,2.30
2023-04-15T13:24:07.264Z,1.87
2023-04-15T13:26:36.103Z,1.80
2023-04-15T13:29:04.618Z,2.20
2023-04-15T13:31:34.168Z,1.93
2023-04-15T13:34:02.509Z,1.60
2023-04-15T13:36:30.812Z,1.90
2023-04-15T13:39:03.871Z,1.90
2023-04-15T13:41:32.311Z,1.50
2023-04-15T13:44:00.664Z,1.90
2023-04-15T13:46:28.776Z,1.87
2023-04-15T13:48:58.244Z,1.90
2023-04-15T13:51:27.085Z,1.90
2023-04-15T13:53:55.249Z,1.90
2023-04-15T13:56:23.304Z,2.03
2023-04-15T13:58:51.417Z,1.90
2023-04-15T14:01:20.012Z,1.57
2023-04-15T14:03:48.308Z,1.70
2023-04-15T14:06:17.921Z,1.73
2023-04-15T14:08:45.999Z,1.60
2023-04-15T14:11:14.104Z,1.70
2023-04-15T14:13:42.199Z,1.67
2023-04-15T14:16:10.302Z,2.00
2023-04-15T14:18:38.518Z,1.80
2023-04-15T14:21:07.374Z,1.80
2023-04-15T14:23:36.908Z,1.50
2023-04-15T14:26:05.231Z,1.50
2023-04-15T14:28:33.319Z,1.50
2023-04-15T14:31:01.487Z,1.70
2023-04-15T14:33:33.146Z,1.50
2023-04-15T14:36:01.863Z,1.50
2023-04-15T14:38:29.973Z,1.77
2023-04-15T14:41:00.038Z,1.50
2023-04-15T14:43:28.172Z,1.83
2023-04-15T14:45:56.802Z,1.40
2023-04-15T14:48:24.947Z,1.70
2023-04-15T14:50:56.290Z,1.50
2023-04-15T14:53:24.495Z,1.60
2023-04-15T14:55:52.636Z,1.60
2023-04-15T14:58:22.374Z,1.97
2023-04-15T15:00:50.463Z,1.57
2023-04-15T15:03:18.799Z,1.70
2023-04-15T15:05:47.542Z,1.90
2023-04-15T15:08:16.145Z,1.50
2023-04-15T15:10:48.970Z,1.50
2023-04-15T15:13:18.104Z,1.70
2023-04-15T15:15:49.452Z,1.67
2023-04-15T15:18:19.330Z,1.70
2023-04-15T15:20:47.921Z,1.50
2023-04-15T15:23:16.115Z,1.80
2023-04-15T15:25:44.964Z,1.97
2023-04-15T15:28:13.046Z,1.87
2023-04-15T15:30:41.118Z,1.60
2023-04-15T15:33:10.570Z,1.80
2023-04-15T15:35:38.614Z,1.70
2023-04-15T15:38:06.717Z,1.70
2023-04-15T15:40:34.835Z,1.60
2023-04-15T15:43:05.642Z,1.40
2023-04-15T15:45:34.514Z,1.60
2023-04-15T15:48:02.795Z,1.80
2023-04-15T15:50:32.446Z,1.57
2023-04-15T15:53:00.567Z,1.70
2023-04-15T15:55:28.725Z,1.40
2023-04-15T15:57:56.769Z,1.50
2023-04-15T16:00:31.430Z,1.90
2023-04-15T16:03:06.223Z,2.17
2023-04-15T16:05:36.634Z,1.80
2023-04-15T16:08:04.824Z,1.73
2023-04-15T16:10:32.877Z,1.63
2023-04-15T16:13:00.929Z,1.80
2023-04-15T16:15:29.067Z,2.00
2023-04-15T16:17:57.147Z,1.60
2023-04-15T16:20:25.215Z,1.80
2023-04-15T16:22:54.751Z,1.87
2023-04-15T16:25:22.891Z,2.10
2023-04-15T16:28:01.436Z,1.70
2023-04-15T16:30:37.320Z,1.50
2023-04-15T16:33:05.545Z,1.37
2023-04-15T16:35:34.760Z,1.63
2023-04-15T16:38:04.459Z,2.00
2023-04-15T16:40:32.989Z,1.60
2023-04-15T16:43:01.172Z,1.63
2023-04-15T16:45:29.442Z,1.60
2023-04-15T16:47:57.878Z,2.07
2023-04-15T16:50:39.909Z,1.43
2023-04-15T16:53:09.333Z,1.80
2023-04-15T16:55:38.001Z,1.80
2023-04-15T16:58:08.334Z,1.70
2023-04-15T17:00:37.126Z,1.80
2023-04-15T17:03:06.957Z,2.00
2023-04-15T17:05:35.239Z,1.50
2023-04-15T17:08:03.313Z,1.93
2023-04-15T17:10:32.951Z,2.07
2023-04-15T17:13:01.044Z,2.10
2023-04-15T17:15:29.221Z,2.27
2023-04-15T17:17:57.386Z,1.70
2023-04-15T17:20:26.517Z,1.77
2023-04-15T17:23:00.683Z,1.87
2023-04-15T17:25:28.792Z,2.07
2023-04-15T17:27:58.298Z,2.00
2023-04-15T17:30:26.451Z,1.80
2023-04-15T17:32:54.624Z,2.00
2023-04-15T17:35:23.541Z,2.17
2023-04-15T17:37:51.746Z,2.00
2023-04-15T17:40:20.533Z,1.70
2023-04-15T17:42:48.847Z,1.67
2023-04-15T17:45:18.713Z,1.87
2023-04-15T17:47:46.959Z,2.00
2023-04-15T17:50:15.079Z,1.73
2023-04-15T17:52:43.173Z,1.83
2023-04-15T17:55:11.334Z,1.67
2023-04-15T17:57:39.352Z,1.60
2023-04-15T18:00:10.204Z,2.17
2023-04-15T18:02:39.875Z,2.10
2023-04-15T18:05:08.630Z,1.90
2023-04-15T18:07:36.923Z,2.00
2023-04-15T18:10:05.647Z,2.10
2023-04-15T18:12:33.806Z,2.00
2023-04-15T18:15:01.946Z,1.80
2023-04-15T18:17:30.152Z,1.70
2023-04-15T18:19:59.735Z,1.60
2023-04-15T18:22:27.982Z,2.00
2023-04-15T18:24:58.966Z,2.20
2023-04-15T18:27:27.166Z,1.70
2023-04-15T18:29:55.762Z,1.83
2023-04-15T18:32:23.910Z,1.83
2023-04-15T18:34:51.998Z,1.53
2023-04-15T18:37:21.458Z,1.67
2023-04-15T18:39:49.541Z,1.93
2023-04-15T18:42:17.697Z,1.87
2023-04-15T18:44:45.760Z,2.00
2023-04-15T18:47:13.806Z,1.63
2023-04-15T18:49:42.160Z,2.00
2023-04-15T18:52:10.725Z,1.90
2023-04-15T18:54:40.430Z,2.00
2023-04-15T18:57:08.549Z,1.77
2023-04-15T18:59:36.792Z,1.70
2023-04-15T19:02:07.445Z,2.13
2023-04-15T19:04:35.922Z,1.47
2023-04-15T19:07:04.203Z,1.63
2023-04-15T19:09:32.289Z,1.50
2023-04-15T19:12:01.888Z,1.57
2023-04-15T19:14:30.056Z,1.70
2023-04-15T19:16:58.323Z,1.67
2023-04-15T19:19:26.616Z,1.67
2023-04-15T19:21:54.800Z,2.10
2023-04-15T19:24:23.295Z,1.60
2023-04-15T19:26:51.417Z,1.70
2023-04-15T19:29:21.981Z,1.80
2023-04-15T19:31:50.031Z,1.83
2023-04-15T19:34:21.344Z,1.70
2023-04-15T19:36:49.412Z,1.67
2023-04-15T19:39:17.485Z,1.53
2023-04-15T19:41:45.619Z,1.60
2023-04-15T19:44:14.289Z,1.70
2023-04-15T19:46:44.928Z,1.83
2023-04-15T19:49:13.043Z,2.30
2023-04-15T19:51:42.056Z,1.87
2023-04-15T19:54:10.193Z,1.90
2023-04-15T19:56:38.225Z,2.10
2023-04-15T19:59:06.424Z,2.53
2023-04-15T20:01:34.630Z,1.87
2023-04-15T20:04:04.457Z,1.80
2023-04-15T20:06:32.644Z,1.43
2023-04-15T20:09:00.762Z,1.77
2023-04-15T20:12:46.792Z,1.87
2023-04-15T20:14:18.617Z,1.80
2023-04-15T20:16:46.687Z,1.83
2023-04-15T20:19:16.217Z,1.43
2023-04-15T20:21:44.407Z,1.70
2023-04-15T20:24:15.149Z,1.70
2023-04-15T20:26:43.189Z,1.73
2023-04-15T20:29:11.293Z,2.00
2023-04-15T20:31:39.428Z,1.67
2023-04-15T20:34:08.812Z,2.10
2023-04-15T20:36:40.183Z,2.00
2023-04-15T20:39:08.438Z,2.13
2023-04-15T20:41:36.590Z,2.00
2023-04-15T20:44:04.702Z,1.70
2023-04-15T20:46:32.904Z,1.77
2023-04-15T20:49:02.120Z,1.90
2023-04-15T20:51:37.315Z,2.27
2023-04-15T20:54:07.183Z,2.43
2023-04-15T20:56:37.624Z,2.10
2023-04-15T20:59:06.017Z,1.87
2023-04-15T21:01:34.261Z,2.03
2023-04-15T21:04:02.477Z,2.30
2023-04-15T21:06:30.933Z,2.17
2023-04-15T21:08:59.026Z,2.57
2023-04-15T21:11:46.410Z,2.77
2023-04-15T21:14:17.049Z,2.57
2023-04-15T21:16:45.194Z,2.80
2023-04-15T21:19:13.359Z,2.67
2023-04-15T21:21:41.520Z,2.60
2023-04-15T21:24:09.646Z,2.90
2023-04-15T21:26:39.147Z,2.90
2023-04-15T21:29:10.516Z,2.73
2023-04-15T21:31:39.673Z,2.90
2023-04-15T21:34:07.738Z,2.70
2023-04-15T21:36:36.000Z,2.90
2023-04-15T21:39:08.368Z,2.57
2023-04-15T21:41:38.781Z,2.77
2023-04-15T21:44:07.085Z,2.73
2023-04-15T21:46:35.747Z,2.70
2023-04-15T21:49:04.525Z,2.87
2023-04-15T21:51:32.915Z,2.83
2023-04-15T21:54:01.121Z,2.50
2023-04-15T21:56:29.271Z,3.07
2023-04-15T21:58:58.992Z,3.07
2023-04-15T22:01:27.230Z,3.13
2023-04-15T22:04:06.103Z,2.63
2023-04-15T22:06:34.368Z,3.10
2023-04-15T22:09:08.320Z,2.83
2023-04-15T22:11:36.436Z,2.63
2023-04-15T22:14:06.480Z,2.83
2023-04-15T22:16:34.556Z,3.77
2023-04-15T22:19:02.687Z,3.37
2023-04-15T22:21:32.499Z,2.87
2023-04-15T22:24:37.999Z,2.90
2023-04-15T22:26:51.394Z,2.87
2023-04-15T22:29:20.889Z,2.80
2023-04-15T22:31:49.124Z,2.93
2023-04-15T22:34:21.278Z,3.20
2023-04-15T22:36:58.213Z,2.83
2023-04-15T22:39:26.562Z,3.20
2023-04-15T22:41:54.649Z,3.50
2023-04-15T22:44:24.138Z,3.10
2023-04-15T22:46:52.607Z,3.37
2023-04-15T22:49:20.692Z,3.70
2023-04-15T22:51:48.819Z,3.03
2023-04-15T22:54:16.844Z,3.17
2023-04-15T22:56:44.951Z,3.03
2023-04-15T22:59:13.000Z,3.40
2023-04-15T23:01:42.552Z,3.00
2023-04-15T23:04:23.185Z,3.27
2023-04-15T23:06:55.810Z,2.93
2023-04-15T23:12:22.665Z,3.70
2023-04-15T23:14:50.882Z,3.90
2023-04-15T23:17:20.516Z,3.90
2023-04-15T23:19:48.602Z,3.83
2023-04-15T23:22:16.702Z,3.67
2023-04-15T23:24:44.817Z,3.67
2023-04-15T23:27:12.923Z,3.77
2023-04-15T23:29:41.004Z,3.63
2023-04-15T23:32:14.333Z,4.30
2023-04-15T23:34:43.815Z,4.47
2023-04-15T23:37:11.980Z,3.90
2023-04-15T23:39:40.069Z,4.00
2023-04-15T23:42:08.244Z,4.50
2023-04-15T23:44:38.304Z,4.37
2023-04-15T23:47:06.487Z,4.73
2023-04-15T23:49:36.699Z,4.50
2023-04-15T23:52:06.551Z,4.90
2023-04-15T23:54:34.618Z,4.90
2023-04-15T23:57:03.610Z,4.87
2023-04-15T23:59:31.697Z,4.77
